createdAt,value
2023-04-03T00:00:32.264Z,967.01
2023-04-03T00:01:32.305Z,967.05
2023-04-03T00:02:32.199Z,967.06
2023-04-03T00:03:32.321Z,967.00
2023-04-03T00:04:32.097Z,967.03
2023-04-03T00:05:32.326Z,967.03
2023-04-03T00:06:31.997Z,967.02
2023-04-03T00:07:32.144Z,966.97
2023-04-03T00:08:31.917Z,966.99
2023-04-03T00:09:31.945Z,966.98
2023-04-03T00:10:31.832Z,966.98
2023-04-03T00:11:31.864Z,966.99
2023-04-03T00:12:31.722Z,967.01
2023-04-03T00:13:31.894Z,967.01
2023-04-03T00:14:31.623Z,967.03
2023-04-03T00:15:31.695Z,967.03
2023-04-03T00:16:31.553Z,967.05
2023-04-03T00:17:32.733Z,966.98
2023-04-03T00:18:31.460Z,966.97
2023-04-03T00:19:32.638Z,967.01
2023-04-03T00:20:31.371Z,967.01
2023-04-03T00:21:31.424Z,966.98
2023-04-03T00:22:31.433Z,967.00
2023-04-03T00:23:31.496Z,966.96
2023-04-03T00:24:31.444Z,967.01
2023-04-03T00:25:31.125Z,966.98
2023-04-03T00:26:31.386Z,967.02
2023-04-03T00:27:31.071Z,967.06
2023-04-03T00:28:31.025Z,967.06
2023-04-03T00:29:31.070Z,967.11
2023-04-03T00:30:31.133Z,967.09
2023-04-03T00:31:31.111Z,967.09
2023-04-03T00:32:30.842Z,967.06
2023-04-03T00:33:30.797Z,967.04
2023-04-03T00:34:30.752Z,967.03
2023-04-03T00:35:30.819Z,967.05
2023-04-03T00:36:30.731Z,967.06
2023-04-03T00:37:31.958Z,966.99
2023-04-03T00:38:30.540Z,967.03
2023-04-03T00:39:30.733Z,967.09
2023-04-03T00:40:30.743Z,967.11
2023-04-03T00:41:30.398Z,967.11
2023-04-03T00:42:30.451Z,967.10
2023-04-03T00:43:30.355Z,967.09
2023-04-03T00:44:30.375Z,967.05
2023-04-03T00:45:30.237Z,967.07
2023-04-03T00:46:30.215Z,967.04
2023-04-03T00:47:30.178Z,967.08
2023-04-03T00:48:30.193Z,967.08
2023-04-03T00:49:30.065Z,967.12
2023-04-03T00:50:30.208Z,967.09
2023-04-03T00:51:29.942Z,967.09
2023-04-03T00:52:30.013Z,967.13
2023-04-03T00:53:29.853Z,967.12
2023-04-03T00:54:30.028Z,967.11
2023-04-03T00:55:29.825Z,967.13
2023-04-03T00:56:29.847Z,967.05
2023-04-03T00:57:29.680Z,967.11
2023-04-03T00:58:29.850Z,967.11
2023-04-03T00:59:29.769Z,967.11
2023-04-03T01:00:29.668Z,967.11
2023-04-03T01:01:29.519Z,967.12
2023-04-03T01:02:29.587Z,967.09
2023-04-03T01:03:29.387Z,967.09
2023-04-03T01:04:29.529Z,967.14
2023-04-03T01:05:29.502Z,967.10
2023-04-03T01:06:29.550Z,967.14
2023-04-03T01:07:29.426Z,967.17
2023-04-03T01:08:29.170Z,967.15
2023-04-03T01:09:29.323Z,967.12
2023-04-03T01:10:29.084Z,967.10
2023-04-03T01:11:29.040Z,967.15
2023-04-03T01:12:28.996Z,967.12
2023-04-03T01:13:29.151Z,967.15
2023-04-03T01:14:28.894Z,967.15
2023-04-03T01:15:28.965Z,967.11
2023-04-03T01:16:29.059Z,967.11
2023-04-03T01:17:28.781Z,967.10
2023-04-03T01:18:28.710Z,967.09
2023-04-03T01:19:28.784Z,967.08
2023-04-03T01:20:28.750Z,967.10
2023-04-03T01:21:28.801Z,967.09
2023-04-03T01:22:28.529Z,967.13
2023-04-03T01:23:28.604Z,967.07
2023-04-03T01:24:28.436Z,967.09
2023-04-03T01:25:28.619Z,967.09
2023-04-03T01:26:28.472Z,967.12
2023-04-03T01:27:28.426Z,967.12
2023-04-03T01:28:28.247Z,967.09
2023-04-03T01:29:28.441Z,967.07
2023-04-03T01:30:28.157Z,967.09
2023-04-03T01:31:28.212Z,967.06
2023-04-03T01:32:28.178Z,967.12
2023-04-03T01:33:28.051Z,967.08
2023-04-03T01:34:28.381Z,967.11
2023-04-03T01:35:27.931Z,967.14
2023-04-03T01:36:27.885Z,967.12
2023-04-03T01:37:27.840Z,967.12
2023-04-03T01:38:28.003Z,967.08
2023-04-03T01:39:27.758Z,967.13
2023-04-03T01:40:27.816Z,967.19
2023-04-03T01:41:27.657Z,967.14
2023-04-03T01:42:27.602Z,967.16
2023-04-03T01:43:27.824Z,967.17
2023-04-03T01:44:27.562Z,967.16
2023-04-03T01:45:27.779Z,967.21
2023-04-03T01:46:27.433Z,967.17
2023-04-03T01:47:27.692Z,967.21
2023-04-03T01:48:27.455Z,967.25
2023-04-03T01:49:27.283Z,967.21
2023-04-03T01:50:27.582Z,967.20
2023-04-03T01:51:27.200Z,967.25
2023-04-03T01:52:27.284Z,967.21
2023-04-03T01:53:27.105Z,967.20
2023-04-03T01:54:27.048Z,967.20
2023-04-03T01:55:27.025Z,967.23
2023-04-03T01:56:26.987Z,967.21
2023-04-03T01:57:27.186Z,967.21
2023-04-03T01:58:26.868Z,967.23
2023-04-03T01:59:26.925Z,967.17
2023-04-03T02:00:26.781Z,967.22
2023-04-03T02:01:27.064Z,967.21
2023-04-03T02:02:26.721Z,967.22
2023-04-03T02:03:26.954Z,967.26
2023-04-03T02:04:26.647Z,967.23
2023-04-03T02:05:27.794Z,967.24
2023-04-03T02:06:26.495Z,967.24
2023-04-03T02:07:26.576Z,967.28
2023-04-03T02:08:26.416Z,967.24
2023-04-03T02:09:26.486Z,967.24
2023-04-03T02:10:26.559Z,967.23
2023-04-03T02:11:26.494Z,967.24
2023-04-03T02:12:26.220Z,967.28
2023-04-03T02:13:26.180Z,967.27
2023-04-03T02:14:26.313Z,967.28
2023-04-03T02:15:26.087Z,967.26
2023-04-03T02:16:26.394Z,967.34
2023-04-03T02:17:26.017Z,967.35
2023-04-03T02:18:26.238Z,967.31
2023-04-03T02:19:26.112Z,967.29
2023-04-03T02:20:26.072Z,967.31
2023-04-03T02:21:25.836Z,967.31
2023-04-03T02:22:26.064Z,967.33
2023-04-03T02:23:25.716Z,967.34
2023-04-03T02:24:25.882Z,967.30
2023-04-03T02:25:25.882Z,967.31
2023-04-03T02:26:25.573Z,967.34
2023-04-03T02:27:25.739Z,967.28
2023-04-03T02:28:25.477Z,967.32
2023-04-03T02:29:26.637Z,967.36
2023-04-03T02:30:25.390Z,967.37
2023-04-03T02:31:25.717Z,967.34
2023-04-03T02:32:25.435Z,967.30
2023-04-03T02:33:25.243Z,967.30
2023-04-03T02:34:25.458Z,967.31
2023-04-03T02:35:25.176Z,967.32
2023-04-03T02:36:25.253Z,967.33
2023-04-03T02:37:25.259Z,967.31
2023-04-03T02:38:25.012Z,967.33
2023-04-03T02:39:25.164Z,967.33
2023-04-03T02:40:24.919Z,967.33
2023-04-03T02:41:25.184Z,967.32
2023-04-03T02:42:24.850Z,967.31
2023-04-03T02:43:25.041Z,967.26
2023-04-03T02:44:25.001Z,967.30
2023-04-03T02:45:24.714Z,967.32
2023-04-03T02:46:25.067Z,967.31
2023-04-03T02:47:24.612Z,967.33
2023-04-03T02:48:24.824Z,967.37
2023-04-03T02:49:24.512Z,967.35
2023-04-03T02:50:24.640Z,967.40
2023-04-03T02:51:24.450Z,967.37
2023-04-03T02:52:24.466Z,967.39
2023-04-03T02:53:24.522Z,967.39
2023-04-03T02:54:24.570Z,967.38
2023-04-03T02:55:24.233Z,967.43
2023-04-03T02:56:24.481Z,967.41
2023-04-03T02:57:24.171Z,967.38
2023-04-03T02:58:25.309Z,967.37
2023-04-03T02:59:24.043Z,967.42
2023-04-03T03:00:24.309Z,967.45
2023-04-03T03:01:23.968Z,967.39
2023-04-03T03:02:23.939Z,967.42
2023-04-03T03:03:24.150Z,967.46
2023-04-03T03:04:23.995Z,967.37
2023-04-03T03:05:23.996Z,967.39
2023-04-03T03:06:23.721Z,967.39
2023-04-03T03:07:23.946Z,967.35
2023-04-03T03:08:23.627Z,967.42
2023-04-03T03:09:23.763Z,967.45
2023-04-03T03:10:23.559Z,967.47
2023-04-03T03:11:23.994Z,967.41
2023-04-03T03:12:23.442Z,967.47
2023-04-03T03:13:23.577Z,967.51
2023-04-03T03:14:23.346Z,967.47
2023-04-03T03:15:23.404Z,967.48
2023-04-03T03:16:23.297Z,967.46
2023-04-03T03:17:23.538Z,967.44
2023-04-03T03:18:23.161Z,967.37
2023-04-03T03:19:23.309Z,967.43
2023-04-03T03:20:23.062Z,967.43
2023-04-03T03:21:23.328Z,967.42
2023-04-03T03:22:22.969Z,967.40
2023-04-03T03:23:23.351Z,967.44
2023-04-03T03:24:22.883Z,967.43
2023-04-03T03:25:23.064Z,967.43
2023-04-03T03:26:22.782Z,967.50
2023-04-03T03:27:22.859Z,967.50
2023-04-03T03:28:22.701Z,967.45
2023-04-03T03:29:22.883Z,967.55
2023-04-03T03:30:22.594Z,967.44
2023-04-03T03:31:22.733Z,967.44
2023-04-03T03:32:22.717Z,967.46
2023-04-03T03:33:22.456Z,967.46
2023-04-03T03:34:22.706Z,967.42
2023-04-03T03:35:22.572Z,967.48
2023-04-03T03:36:22.386Z,967.47
2023-04-03T03:37:22.442Z,967.40
2023-04-03T03:38:22.224Z,967.42
2023-04-03T03:39:22.182Z,967.42
2023-04-03T03:40:23.263Z,967.47
2023-04-03T03:41:22.496Z,967.47
2023-04-03T03:42:22.256Z,967.43
2023-04-03T03:43:21.989Z,967.47
2023-04-03T03:44:22.164Z,967.50
2023-04-03T03:45:21.892Z,967.48
2023-04-03T03:46:22.034Z,967.50
2023-04-03T03:47:21.835Z,967.47
2023-04-03T03:48:21.994Z,967.51
2023-04-03T03:49:21.714Z,967.51
2023-04-03T03:50:21.794Z,967.48
2023-04-03T03:51:21.613Z,967.50
2023-04-03T03:52:21.811Z,967.50
2023-04-03T03:53:21.670Z,967.50
2023-04-03T03:54:21.624Z,967.49
2023-04-03T03:55:21.429Z,967.53
2023-04-03T03:56:21.648Z,967.54
2023-04-03T03:57:21.378Z,967.55
2023-04-03T03:58:21.555Z,967.52
2023-04-03T03:59:21.249Z,967.58
2023-04-03T04:00:21.371Z,967.60
2023-04-03T04:01:21.153Z,967.61
2023-04-03T04:02:21.195Z,967.63
2023-04-03T04:03:21.133Z,967.64
2023-04-03T04:04:21.349Z,967.66
2023-04-03T04:05:20.967Z,967.65
2023-04-03T04:06:21.097Z,967.66
2023-04-03T04:07:20.879Z,967.69
2023-04-03T04:08:22.384Z,967.66
2023-04-03T04:09:21.134Z,967.65
2023-04-03T04:10:20.729Z,967.67
2023-04-03T04:11:20.952Z,967.65
2023-04-03T04:12:20.642Z,967.72
2023-04-03T04:13:20.747Z,967.68
2023-04-03T04:14:20.800Z,967.70
2023-04-03T04:15:20.505Z,967.71
2023-04-03T04:16:20.527Z,967.66
2023-04-03T04:17:20.575Z,967.70
2023-04-03T04:18:20.362Z,967.69
2023-04-03T04:19:20.573Z,967.70
2023-04-03T04:20:20.266Z,967.73
2023-04-03T04:21:20.609Z,967.70
2023-04-03T04:22:20.186Z,967.68
2023-04-03T04:23:20.407Z,967.69
2023-04-03T04:24:20.088Z,967.69
2023-04-03T04:25:20.216Z,967.65
2023-04-03T04:26:20.283Z,967.66
2023-04-03T04:27:20.127Z,967.65
2023-04-03T04:28:19.894Z,967.64
2023-04-03T04:29:19.879Z,967.68
2023-04-03T04:30:20.048Z,967.67
2023-04-03T04:31:19.957Z,967.69
2023-04-03T04:32:19.877Z,967.72
2023-04-03T04:33:19.663Z,967.71
2023-04-03T04:34:19.628Z,967.69
2023-04-03T04:35:19.817Z,967.69
2023-04-03T04:36:19.605Z,967.68
2023-04-03T04:37:19.790Z,967.68
2023-04-03T04:38:19.438Z,967.69
2023-04-03T04:39:19.711Z,967.67
2023-04-03T04:40:19.506Z,967.69
2023-04-03T04:41:19.285Z,967.70
2023-04-03T04:42:19.427Z,967.65
2023-04-03T04:43:19.423Z,967.63
2023-04-03T04:44:19.432Z,967.65
2023-04-03T04:45:19.119Z,967.65
2023-04-03T04:46:19.141Z,967.67
2023-04-03T04:47:19.010Z,967.69
2023-04-03T04:48:19.153Z,967.69
2023-04-03T04:49:18.949Z,967.65
2023-04-03T04:50:19.178Z,967.62
2023-04-03T04:51:18.820Z,967.65
2023-04-03T04:52:18.982Z,967.63
2023-04-03T04:53:18.760Z,967.67
2023-04-03T04:54:18.889Z,967.68
2023-04-03T04:55:18.639Z,967.63
2023-04-03T04:56:18.905Z,967.69
2023-04-03T04:57:18.586Z,967.69
2023-04-03T04:58:18.610Z,967.73
2023-04-03T04:59:19.416Z,967.71
2023-04-03T05:00:18.628Z,967.70
2023-04-03T05:01:18.384Z,967.71
2023-04-03T05:02:18.440Z,967.77
2023-04-03T05:03:18.261Z,967.75
2023-04-03T05:04:18.878Z,967.75
2023-04-03T05:05:18.329Z,967.74
2023-04-03T05:06:18.131Z,967.73
2023-04-03T05:07:18.284Z,967.76
2023-04-03T05:08:18.036Z,967.76
2023-04-03T05:09:18.078Z,967.84
2023-04-03T05:10:18.120Z,967.82
2023-04-03T05:11:17.887Z,967.86
2023-04-03T05:12:17.847Z,967.87
2023-04-03T05:13:17.902Z,967.85
2023-04-03T05:14:17.756Z,967.83
2023-04-03T05:15:18.750Z,967.86
2023-04-03T05:16:17.726Z,967.88
2023-04-03T05:17:17.693Z,967.89
2023-04-03T05:18:17.740Z,967.91
2023-04-03T05:19:18.779Z,967.87
2023-04-03T05:20:17.483Z,967.95
2023-04-03T05:21:17.554Z,967.91
2023-04-03T05:22:17.380Z,967.93
2023-04-03T05:23:17.472Z,967.96
2023-04-03T05:24:17.285Z,967.94
2023-04-03T05:25:17.430Z,968.02
2023-04-03T05:26:17.389Z,967.98
2023-04-03T05:27:17.161Z,967.99
2023-04-03T05:28:17.410Z,967.98
2023-04-03T05:29:17.056Z,968.00
2023-04-03T05:30:17.012Z,968.05
2023-04-03T05:31:17.127Z,968.05
2023-04-03T05:32:16.929Z,968.05
2023-04-03T05:33:16.926Z,968.10
2023-04-03T05:34:16.861Z,968.08
2023-04-03T05:35:17.148Z,968.12
2023-04-03T05:36:16.980Z,968.12
2023-04-03T05:37:16.664Z,968.08
2023-04-03T05:38:16.861Z,968.15
2023-04-03T05:39:16.615Z,968.20
2023-04-03T05:40:18.236Z,968.19
2023-04-03T05:41:16.485Z,968.16
2023-04-03T05:42:16.436Z,968.22
2023-04-03T05:43:16.548Z,968.21
2023-04-03T05:44:16.489Z,968.26
2023-04-03T05:45:16.319Z,968.24
2023-04-03T05:46:16.443Z,968.25
2023-04-03T05:47:16.209Z,968.31
2023-04-03T05:48:16.176Z,968.30
2023-04-03T05:49:16.168Z,968.31
2023-04-03T05:50:16.194Z,968.32
2023-04-03T05:51:16.026Z,968.32
2023-04-03T05:52:23.933Z,968.34
2023-04-03T05:53:24.006Z,968.29
2023-04-03T05:54:23.125Z,968.29
2023-04-03T05:55:15.929Z,968.31
2023-04-03T05:56:16.994Z,968.27
2023-04-03T05:57:15.770Z,968.35
2023-04-03T05:58:16.081Z,968.36
2023-04-03T05:59:15.658Z,968.29
2023-04-03T06:03:48.303Z,968.28
2023-04-03T06:04:46.936Z,968.30
2023-04-03T06:05:46.754Z,968.27
2023-04-03T06:06:46.679Z,968.28
2023-04-03T06:07:46.772Z,968.27
2023-04-03T06:08:46.570Z,968.30
2023-04-03T06:09:46.686Z,968.35
2023-04-03T06:10:46.472Z,968.31
2023-04-03T06:11:46.603Z,968.32
2023-04-03T06:12:46.463Z,968.28
2023-04-03T06:13:46.412Z,968.31
2023-04-03T06:14:46.308Z,968.32
2023-04-03T06:15:46.420Z,968.38
2023-04-03T06:16:46.232Z,968.35
2023-04-03T06:17:46.275Z,968.41
2023-04-03T06:18:46.099Z,968.36
2023-04-03T06:19:46.349Z,968.39
2023-04-03T06:20:46.004Z,968.35
2023-04-03T06:21:46.021Z,968.38
2023-04-03T06:22:47.084Z,968.38
2023-04-03T06:23:45.855Z,968.38
2023-04-03T06:24:45.815Z,968.39
2023-04-03T06:25:46.095Z,968.40
2023-04-03T06:26:45.722Z,968.37
2023-04-03T06:27:45.900Z,968.35
2023-04-03T06:28:45.648Z,968.39
2023-04-03T06:29:45.712Z,968.36
2023-04-03T06:30:45.746Z,968.38
2023-04-03T06:31:45.595Z,968.34
2023-04-03T06:32:45.542Z,968.41
2023-04-03T06:33:45.392Z,968.46
2023-04-03T06:34:45.537Z,968.37
2023-04-03T06:35:45.364Z,968.43
2023-04-03T06:36:45.269Z,968.46
2023-04-03T06:37:45.229Z,968.44
2023-04-03T06:38:45.282Z,968.46
2023-04-03T06:39:45.111Z,968.49
2023-04-03T06:40:45.272Z,968.53
2023-04-03T06:41:45.136Z,968.48
2023-04-03T06:42:44.969Z,968.50
2023-04-03T06:43:44.926Z,968.50
2023-04-03T06:44:44.991Z,968.51
2023-04-03T06:45:44.835Z,968.57
2023-04-03T06:46:45.226Z,968.50
2023-04-03T06:47:44.821Z,968.47
2023-04-03T06:48:44.709Z,968.63
2023-04-03T06:49:44.744Z,968.47
2023-04-03T06:50:44.838Z,968.50
2023-04-03T06:51:44.566Z,968.48
2023-04-03T06:52:44.547Z,968.46
2023-04-03T06:53:44.548Z,968.49
2023-04-03T06:54:44.420Z,968.47
2023-04-03T06:55:44.464Z,968.49
2023-04-03T06:56:44.336Z,968.53
2023-04-03T06:57:44.603Z,968.56
2023-04-03T06:58:44.269Z,968.54
2023-04-03T06:59:44.283Z,968.59
2023-04-03T07:00:44.171Z,968.61
2023-04-03T07:01:44.134Z,968.62
2023-04-03T07:02:44.149Z,968.58
2023-04-03T07:03:44.017Z,968.63
2023-04-03T07:04:44.354Z,968.65
2023-04-03T07:05:43.924Z,968.65
2023-04-03T07:06:43.942Z,968.55
2023-04-03T07:07:43.812Z,968.58
2023-04-03T07:08:43.944Z,968.57
2023-04-03T07:09:45.239Z,968.56
2023-04-03T07:10:44.777Z,968.59
2023-04-03T07:11:44.012Z,968.65
2023-04-03T07:12:43.763Z,968.59
2023-04-03T07:13:43.783Z,968.63
2023-04-03T07:14:43.502Z,968.60
2023-04-03T07:15:43.685Z,968.65
2023-04-03T07:16:43.444Z,968.63
2023-04-03T07:17:43.629Z,968.62
2023-04-03T07:18:43.469Z,968.64
2023-04-03T07:19:43.261Z,968.67
2023-04-03T07:20:43.307Z,968.67
2023-04-03T07:21:43.170Z,968.69
2023-04-03T07:22:43.226Z,968.73
2023-04-03T07:23:43.244Z,968.71
2023-04-03T07:24:43.146Z,968.73
2023-04-03T07:25:42.985Z,968.72
2023-04-03T07:26:43.162Z,968.75
2023-04-03T07:27:42.896Z,968.73
2023-04-03T07:28:42.982Z,968.77
2023-04-03T07:29:42.914Z,968.83
2023-04-03T07:30:42.991Z,968.77
2023-04-03T07:31:42.848Z,968.80
2023-04-03T07:32:43.135Z,968.81
2023-04-03T07:33:42.638Z,968.80
2023-04-03T07:34:42.906Z,968.80
2023-04-03T07:35:42.585Z,968.84
2023-04-03T07:36:42.622Z,968.82
2023-04-03T07:37:42.517Z,968.82
2023-04-03T07:38:42.388Z,968.92
2023-04-03T07:39:42.437Z,968.85
2023-04-03T07:40:42.491Z,968.86
2023-04-03T07:41:42.444Z,968.86
2023-04-03T07:42:42.213Z,968.89
2023-04-03T07:43:42.158Z,968.91
2023-04-03T07:44:42.110Z,968.93
2023-04-03T07:45:42.292Z,968.92
2023-04-03T07:46:42.059Z,968.91
2023-04-03T07:47:42.097Z,968.85
2023-04-03T07:48:41.942Z,968.87
2023-04-03T07:49:42.149Z,968.89
2023-04-03T07:50:41.848Z,968.85
2023-04-03T07:51:42.926Z,968.89
2023-04-03T07:52:41.770Z,968.91
2023-04-03T07:53:41.924Z,968.88
2023-04-03T07:54:41.668Z,968.87
2023-04-03T07:55:41.610Z,968.87
2023-04-03T07:56:41.580Z,968.93
2023-04-03T07:57:41.754Z,968.87
2023-04-03T07:58:41.485Z,968.92
2023-04-03T07:59:41.506Z,968.90
2023-04-03T08:00:41.568Z,968.85
2023-04-03T08:01:41.525Z,968.93
2023-04-03T08:02:41.517Z,968.96
2023-04-03T08:03:41.573Z,968.93
2023-04-03T08:04:42.446Z,968.95
2023-04-03T08:05:41.158Z,968.98
2023-04-03T08:06:46.316Z,969.02
2023-04-03T08:07:41.075Z,969.01
2023-04-03T08:08:41.115Z,969.03
2023-04-03T08:09:40.980Z,968.98
2023-04-03T08:10:41.228Z,968.99
2023-04-03T08:11:41.090Z,968.97
2023-04-03T08:12:40.928Z,969.00
2023-04-03T08:13:40.799Z,969.01
2023-04-03T08:14:40.757Z,969.00
2023-04-03T08:15:40.953Z,969.00
2023-04-03T08:16:40.740Z,969.02
2023-04-03T08:17:41.032Z,969.06
2023-04-03T08:18:40.585Z,969.00
2023-04-03T08:19:40.788Z,968.98
2023-04-03T08:20:40.497Z,969.04
2023-04-03T08:21:40.440Z,969.02
2023-04-03T08:22:40.592Z,968.99
2023-04-03T08:23:40.475Z,968.99
2023-04-03T08:24:48.846Z,968.96
2023-04-03T08:25:40.265Z,969.06
2023-04-03T08:26:40.215Z,969.00
2023-04-03T08:27:40.173Z,969.00
2023-04-03T08:28:40.334Z,968.99
2023-04-03T08:29:40.252Z,968.95
2023-04-03T08:30:40.172Z,968.95
2023-04-03T08:31:39.990Z,968.92
2023-04-03T08:32:39.963Z,969.01
2023-04-03T08:33:39.903Z,969.04
2023-04-03T08:34:39.971Z,969.08
2023-04-03T08:35:40.803Z,969.04
2023-04-03T08:36:39.986Z,969.02
2023-04-03T08:37:39.758Z,969.04
2023-04-03T08:38:39.793Z,969.01
2023-04-03T08:39:39.633Z,968.99
2023-04-03T08:40:39.808Z,969.01
2023-04-03T08:41:39.570Z,968.98
2023-04-03T08:42:41.011Z,969.04
2023-04-03T08:43:39.459Z,969.07
2023-04-03T08:44:41.426Z,969.01
2023-04-03T08:45:39.900Z,969.02
2023-04-03T08:46:39.650Z,969.02
2023-04-03T08:47:39.322Z,969.02
2023-04-03T08:48:39.453Z,969.02
2023-04-03T08:49:39.310Z,969.00
2023-04-03T08:50:40.535Z,969.01
2023-04-03T08:51:39.100Z,969.01
2023-04-03T08:52:39.084Z,969.06
2023-04-03T08:53:40.224Z,969.06
2023-04-03T08:54:38.972Z,969.02
2023-04-03T08:55:39.319Z,969.02
2023-04-03T08:56:38.877Z,968.96
2023-04-03T08:57:40.085Z,968.98
2023-04-03T08:58:38.825Z,969.03
2023-04-03T08:59:38.829Z,969.10
2023-04-03T09:00:38.705Z,969.04
2023-04-03T09:01:38.912Z,969.08
2023-04-03T09:02:38.629Z,969.04
2023-04-03T09:03:38.582Z,969.08
2023-04-03T09:04:38.819Z,969.13
2023-04-03T09:05:38.998Z,969.15
2023-04-03T09:06:39.282Z,969.14
2023-04-03T09:07:38.580Z,969.17
2023-04-03T09:08:38.348Z,969.11
2023-04-03T09:09:38.297Z,969.06
2023-04-03T09:10:38.788Z,969.12
2023-04-03T09:11:38.298Z,969.07
2023-04-03T09:12:38.174Z,969.17
2023-04-03T09:13:38.322Z,969.09
2023-04-03T09:14:38.081Z,969.13
2023-04-03T09:15:39.475Z,969.11
2023-04-03T09:16:38.018Z,969.08
2023-04-03T09:17:38.522Z,969.12
2023-04-03T09:18:37.899Z,969.11
2023-04-03T09:19:37.970Z,969.09
2023-04-03T09:20:37.981Z,969.09
2023-04-03T09:21:37.968Z,969.11
2023-04-03T09:22:45.598Z,969.07
2023-04-03T09:23:37.726Z,969.08
2023-04-03T09:24:37.783Z,969.09
2023-04-03T09:25:37.594Z,969.11
2023-04-03T09:26:37.796Z,969.16
2023-04-03T09:27:37.550Z,969.12
2023-04-03T09:28:46.911Z,969.13
2023-04-03T09:29:37.444Z,969.11
2023-04-03T09:30:37.670Z,969.10
2023-04-03T09:31:37.479Z,969.08
2023-04-03T09:32:37.324Z,969.07
2023-04-03T09:33:37.636Z,969.04
2023-04-03T09:34:37.175Z,969.07
2023-04-03T09:35:47.155Z,969.05
2023-04-03T09:36:37.088Z,969.07
2023-04-03T09:37:38.554Z,969.09
2023-04-03T09:38:37.002Z,969.10
2023-04-03T09:39:37.272Z,969.08
2023-04-03T09:40:37.255Z,969.06
2023-04-03T09:41:36.870Z,969.09
2023-04-03T09:42:37.094Z,969.10
2023-04-03T09:43:36.777Z,969.04
2023-04-03T09:44:36.904Z,969.06
2023-04-03T09:45:36.967Z,969.11
2023-04-03T09:46:36.936Z,969.07
2023-04-03T09:47:36.740Z,969.01
2023-04-03T09:48:36.562Z,969.10
2023-04-03T09:49:36.738Z,969.10
2023-04-03T09:50:36.648Z,969.12
2023-04-03T09:51:36.780Z,969.13
2023-04-03T09:52:37.648Z,969.19
2023-04-03T09:53:36.347Z,969.11
2023-04-03T09:54:36.294Z,969.17
2023-04-03T09:55:36.470Z,969.08
2023-04-03T09:56:36.216Z,969.13
2023-04-03T09:57:37.555Z,969.11
2023-04-03T09:58:43.173Z,969.09
2023-04-03T09:59:36.074Z,969.13
2023-04-03T10:00:36.339Z,969.10
2023-04-03T10:01:36.177Z,969.15
2023-04-03T10:02:35.962Z,969.14
2023-04-03T10:03:36.022Z,969.15
2023-04-03T10:04:35.862Z,969.12
2023-04-03T10:05:35.970Z,969.19
2023-04-03T10:06:35.759Z,969.14
2023-04-03T10:07:35.967Z,969.17
2023-04-03T10:08:35.705Z,969.17
2023-04-03T10:09:35.756Z,969.14
2023-04-03T10:10:35.644Z,969.16
2023-04-03T10:11:35.603Z,969.13
2023-04-03T10:12:35.507Z,969.09
2023-04-03T10:13:38.985Z,969.11
2023-04-03T10:14:35.404Z,969.09
2023-04-03T10:15:35.594Z,969.06
2023-04-03T10:16:35.376Z,969.13
2023-04-03T10:17:36.037Z,969.08
2023-04-03T10:18:35.258Z,969.12
2023-04-03T10:19:35.203Z,969.10
2023-04-03T10:20:35.428Z,969.11
2023-04-03T10:21:35.106Z,969.09
2023-04-03T10:22:35.350Z,969.11
2023-04-03T10:23:35.048Z,969.13
2023-04-03T10:24:35.146Z,969.06
2023-04-03T10:25:34.937Z,969.04
2023-04-03T10:26:35.156Z,969.14
2023-04-03T10:27:34.847Z,969.09
2023-04-03T10:28:34.833Z,969.06
2023-04-03T10:29:34.906Z,969.05
2023-04-03T10:30:35.069Z,969.04
2023-04-03T10:31:34.772Z,969.02
2023-04-03T10:32:34.825Z,968.98
2023-04-03T10:33:34.583Z,969.05
2023-04-03T10:34:34.831Z,969.04
2023-04-03T10:35:34.552Z,969.02
2023-04-03T10:36:34.626Z,969.01
2023-04-03T10:37:34.408Z,969.04
2023-04-03T10:38:34.837Z,969.01
2023-04-03T10:39:34.327Z,969.04
2023-04-03T10:40:34.440Z,969.10
2023-04-03T10:41:34.229Z,969.03
2023-04-03T10:42:34.261Z,969.08
2023-04-03T10:43:34.140Z,969.03
2023-04-03T10:44:34.093Z,969.08
2023-04-03T10:45:34.267Z,969.01
2023-04-03T10:46:34.036Z,969.03
2023-04-03T10:47:35.497Z,969.01
2023-04-03T10:48:33.922Z,969.00
2023-04-03T10:49:33.886Z,969.01
2023-04-03T10:50:33.846Z,969.00
2023-04-03T10:51:34.007Z,969.01
2023-04-03T10:52:33.759Z,968.97
2023-04-03T10:53:34.025Z,968.95
2023-04-03T10:54:33.675Z,968.98
2023-04-03T10:55:33.618Z,968.91
2023-04-03T10:56:33.573Z,968.94
2023-04-03T10:57:33.679Z,968.94
2023-04-03T10:58:33.486Z,968.93
2023-04-03T10:59:33.879Z,968.97
2023-04-03T11:00:33.400Z,968.92
2023-04-03T11:01:34.639Z,968.92
2023-04-03T11:02:33.451Z,968.89
2023-04-03T11:03:33.645Z,968.91
2023-04-03T11:04:33.234Z,968.92
2023-04-03T11:05:33.397Z,968.89
2023-04-03T11:06:33.145Z,968.93
2023-04-03T11:07:33.418Z,968.91
2023-04-03T11:08:33.165Z,968.88
2023-04-03T11:09:33.242Z,968.92
2023-04-03T11:10:32.974Z,968.89
2023-04-03T11:11:33.137Z,968.93
2023-04-03T11:12:32.892Z,968.89
2023-04-03T11:13:33.148Z,968.84
2023-04-03T11:14:33.064Z,968.89
2023-04-03T11:15:32.830Z,968.93
2023-04-03T11:16:35.686Z,968.89
2023-04-03T11:17:32.677Z,968.90
2023-04-03T11:18:33.937Z,968.93
2023-04-03T11:19:32.777Z,968.88
2023-04-03T11:20:32.534Z,968.90
2023-04-03T11:21:32.509Z,968.89
2023-04-03T11:22:32.721Z,968.87
2023-04-03T11:23:45.869Z,968.84
2023-04-03T11:24:32.357Z,968.87
2023-04-03T11:25:32.348Z,968.93
2023-04-03T11:26:32.271Z,968.80
2023-04-03T11:27:32.238Z,968.83
2023-04-03T11:28:32.450Z,968.79
2023-04-03T11:29:35.565Z,968.79
2023-04-03T11:30:32.363Z,968.80
2023-04-03T11:31:32.132Z,968.75
2023-04-03T11:32:32.193Z,968.77
2023-04-03T11:33:31.970Z,968.80
2023-04-03T11:34:32.184Z,968.80
2023-04-03T11:35:31.889Z,968.79
2023-04-03T11:36:34.849Z,968.80
2023-04-03T11:37:31.999Z,968.77
2023-04-03T11:38:31.742Z,968.82
2023-04-03T11:39:31.713Z,968.86
2023-04-03T11:42:32.065Z,968.79
2023-04-03T11:43:30.632Z,968.75
2023-04-03T11:44:38.979Z,968.73
2023-04-03T11:45:30.853Z,968.78
2023-04-03T11:46:30.505Z,968.73
2023-04-03T11:47:30.685Z,968.76
2023-04-03T11:48:30.545Z,968.73
2023-04-03T11:49:30.554Z,968.74
2023-04-03T11:50:31.695Z,968.75
2023-04-03T11:51:30.262Z,968.78
2023-04-03T11:52:30.369Z,968.69
2023-04-03T11:53:30.174Z,968.71
2023-04-03T11:54:38.435Z,968.68
2023-04-03T11:55:30.094Z,968.68
2023-04-03T11:56:30.396Z,968.71
2023-04-03T11:57:32.307Z,968.71
2023-04-03T11:58:30.259Z,968.77
2023-04-03T11:59:31.239Z,968.73
2023-04-03T12:00:29.877Z,968.78
2023-04-03T12:01:30.019Z,968.71
2023-04-03T12:02:29.914Z,968.69
2023-04-03T12:03:29.848Z,968.73
2023-04-03T12:04:30.016Z,968.63
2023-04-03T12:05:29.886Z,968.63
2023-04-03T12:06:29.596Z,968.67
2023-04-03T12:07:31.700Z,968.66
2023-04-03T12:08:29.517Z,968.65
2023-04-03T12:09:29.485Z,968.64
2023-04-03T12:10:32.620Z,968.61
2023-04-03T12:11:29.581Z,968.61
2023-04-03T12:12:29.385Z,968.58
2023-04-03T12:13:29.595Z,968.57
2023-04-03T12:14:29.249Z,968.61
2023-04-03T12:15:29.612Z,968.59
2023-04-03T12:16:29.235Z,968.57
2023-04-03T12:17:29.431Z,968.61
2023-04-03T12:18:29.074Z,968.61
2023-04-03T12:19:39.274Z,968.60
2023-04-03T12:20:28.991Z,968.63
2023-04-03T12:21:29.142Z,968.61
2023-04-03T12:22:28.906Z,968.55
2023-04-03T12:23:29.048Z,968.60
2023-04-03T12:24:28.826Z,968.61
2023-04-03T12:25:28.962Z,968.64
2023-04-03T12:26:38.344Z,968.54
2023-04-03T12:27:28.688Z,968.58
2023-04-03T12:28:28.655Z,968.55
2023-04-03T12:29:28.796Z,968.61
2023-04-03T12:30:28.572Z,968.55
2023-04-03T12:31:28.642Z,968.50
2023-04-03T12:32:29.405Z,968.48
2023-04-03T12:33:28.533Z,968.50